South Kenner, Louisiana
Current Conditions -  °F | °C
As of 1:53 PM on Sunday 25 Jan 2015 (Local Time) from KMSY Reporting Station
Few Clouds Few Clouds  
Wind Chill: 67°   Ceiling: Unl
Heat Index: 67°   Visibility: 10mi
Dew Point: 39°   Wind: 17mph
Humidity: 36%   Direction: 230°SW
Pressure: 29.92"   Gusts: 25mph
Location:  29.9137°N, 90.2078°W
Report Text: KMSY 251953Z 23015G22KT 10SM FEW250 19/04 A2992 RMK AO2 SLP134 T01940039
Loading
Personal Weather Stations






























Interactive Weather Map New forecast layout! Learn more

10-Day Weather Forecast

Advertisements
Track Severe Weather on mobile